Time;durP1;ratioP1;P1;durP2;ratioP2;P2;SDS_P1;SDS_P2;PMS_P1;PMS_P2;Temp;Humidity;BMP_temperature;BMP_pressure;BME280_temperature;BME280_humidity;BME280_pressure;Samples;Min_cycle;Max_cycle;Signal;HPM_P1;HPM_P2
2023/05/07 00:02:25;;;;;;;39.50;24.33;;;14.30;99.90;;;;;;5078982;28;20088;-70
2023/05/07 00:04:51;;;;;;;40.13;24.85;;;14.30;99.90;;;;;;5079365;28;20094;-69
2023/05/07 00:07:17;;;;;;;45.92;27.25;;;14.30;99.90;;;;;;5078999;28;20101;-70
2023/05/07 00:09:43;;;;;;;43.60;25.98;;;14.40;99.90;;;;;;5079002;28;20040;-69
2023/05/07 00:12:09;;;;;;;41.35;25.45;;;14.20;99.90;;;;;;5061423;28;20040;-69
2023/05/07 00:14:35;;;;;;;44.05;27.17;;;14.10;99.90;;;;;;5079183;28;20036;-69
2023/05/07 00:17:01;;;;;;;38.03;24.23;;;14.20;99.90;;;;;;5079205;28;20029;-70
2023/05/07 00:19:26;;;;;;;47.13;27.90;;;14.10;99.90;;;;;;5078742;28;20036;-70
2023/05/07 00:21:53;;;;;;;49.40;28.85;;;14.10;99.90;;;;;;5079097;28;20035;-69
2023/05/07 00:24:19;;;;;;;46.03;27.23;;;13.90;99.90;;;;;;5078737;28;20040;-69
2023/05/07 00:26:45;;;;;;;42.08;27.25;;;14.00;99.90;;;;;;5078999;28;20043;-70
2023/05/07 00:29:11;;;;;;;43.35;27.77;;;14.00;99.90;;;;;;5078959;28;20429;-69
2023/05/07 00:31:36;;;;;;;49.72;29.27;;;14.00;99.90;;;;;;5061152;28;20056;-70
2023/05/07 00:34:02;;;;;;;46.10;26.90;;;14.00;99.90;;;;;;5078926;28;20040;-70
2023/05/07 00:36:28;;;;;;;49.97;28.60;;;14.00;99.90;;;;;;5078479;28;20374;-70
2023/05/07 00:38:55;;;;;;;49.40;28.48;;;14.00;99.90;;;;;;5078501;28;20109;-69
2023/05/07 00:41:21;;;;;;;40.65;26.02;;;13.90;99.90;;;;;;5078708;28;20047;-69
2023/05/07 00:43:47;;;;;;;47.97;28.65;;;14.00;99.90;;;;;;5060941;28;20041;-69
2023/05/07 00:46:13;;;;;;;56.83;30.65;;;14.00;99.90;;;;;;5078628;28;20044;-69
2023/05/07 00:48:40;;;;;;;46.65;26.67;;;14.00;99.90;;;;;;5078204;28;20499;-70
2023/05/07 00:51:05;;;;;;;53.17;31.13;;;14.00;99.90;;;;;;5078036;28;20173;-69
2023/05/07 00:53:31;;;;;;;46.88;27.13;;;13.90;99.90;;;;;;5059890;28;20123;-70
2023/05/07 00:55:57;;;;;;;49.67;29.05;;;13.90;99.90;;;;;;5078405;28;20041;-69
2023/05/07 00:58:23;;;;;;;44.33;27.17;;;13.90;99.90;;;;;;5078263;28;20044;-69
2023/05/07 01:00:49;;;;;;;46.95;29.80;;;13.80;99.90;;;;;;5078095;28;20049;-69
2023/05/07 01:03:15;;;;;;;56.72;31.92;;;13.80;99.90;;;;;;5078449;28;20032;-70
2023/05/07 01:05:42;;;;;;;45.97;29.38;;;13.60;99.90;;;;;;5077923;28;20052;-70
2023/05/07 01:08:09;;;;;;;57.20;31.65;;;13.60;99.90;;;;;;5060593;28;20418;-70
2023/05/07 01:10:34;;;;;;;52.58;31.02;;;13.70;99.90;;;;;;5077835;28;20044;-69
2023/05/07 01:13:01;;;;;;;48.38;28.65;;;13.60;99.90;;;;;;5077794;28;20051;-69
2023/05/07 01:15:27;;;;;;;46.17;28.02;;;13.60;99.90;;;;;;5077725;28;20421;-70
2023/05/07 01:17:53;;;;;;;48.35;29.38;;;13.50;99.90;;;;;;5060265;28;20040;-70
2023/05/07 01:20:19;;;;;;;56.00;31.40;;;13.50;99.90;;;;;;5078073;28;20044;-70
2023/05/07 01:22:45;;;;;;;53.28;29.58;;;13.60;99.90;;;;;;5077884;28;20102;-70
2023/05/07 01:25:11;;;;;;;53.22;31.15;;;13.60;99.90;;;;;;5077829;28;20115;-70
2023/05/07 01:27:37;;;;;;;50.20;29.20;;;13.40;99.90;;;;;;5077757;28;20094;-69
2023/05/07 01:30:06;;;;;;;49.85;30.83;;;13.30;99.90;;;;;;5077737;28;20048;-69
2023/05/07 01:32:43;;;;;;;47.42;29.58;;;13.30;99.90;;;;;;5077305;28;20047;-70
2023/05/07 01:35:11;;;;;;;56.35;31.42;;;13.40;99.90;;;;;;5077296;28;20064;-70
2023/05/07 01:37:39;;;;;;;52.40;31.40;;;13.30;99.90;;;;;;5077569;28;20033;-69
2023/05/07 01:40:07;;;;;;;46.78;29.42;;;13.30;99.90;;;;;;5077429;28;20044;-70
2023/05/07 01:42:33;;;;;;;47.42;27.92;;;13.40;99.90;;;;;;5077218;28;20044;-70
2023/05/07 01:44:59;;;;;;;56.35;33.38;;;13.40;99.90;;;;;;5077396;28;20115;-69
2023/05/07 01:47:26;;;;;;;45.85;29.73;;;13.30;99.90;;;;;;5077368;28;20331;-70
2023/05/07 01:49:52;;;;;;;54.53;32.45;;;13.20;99.90;;;;;;5077348;28;20040;-70
2023/05/07 01:52:18;;;;;;;55.17;32.53;;;13.20;99.90;;;;;;5077296;28;20047;-70
2023/05/07 01:54:43;;;;;;;61.53;33.50;;;13.30;99.90;;;;;;5077189;28;20035;-69
2023/05/07 01:57:09;;;;;;;55.72;31.63;;;13.40;99.90;;;;;;5077213;28;20044;-70
2023/05/07 01:59:35;;;;;;;56.15;32.70;;;13.30;99.90;;;;;;5077115;28;20055;-70
2023/05/07 02:02:01;;;;;;;59.05;34.67;;;13.30;99.90;;;;;;5076807;28;20049;-70
2023/05/07 02:04:26;;;;;;;61.50;33.92;;;13.30;99.90;;;;;;5059193;28;20048;-70
2023/05/07 02:06:52;;;;;;;54.03;31.13;;;13.20;99.90;;;;;;5076439;28;20497;-70
2023/05/07 02:09:19;;;;;;;55.63;30.80;;;13.20;99.90;;;;;;5077048;28;20123;-70
2023/05/07 02:11:44;;;;;;;48.67;29.70;;;13.10;99.90;;;;;;5077054;28;20084;-70
2023/05/07 02:14:10;;;;;;;65.72;36.28;;;13.20;99.90;;;;;;5076978;28;20075;-70
2023/05/07 02:16:36;;;;;;;57.05;31.85;;;13.20;99.90;;;;;;5076706;28;20406;-70
2023/05/07 02:19:02;;;;;;;57.72;33.10;;;13.30;99.90;;;;;;5076510;28;20040;-70
2023/05/07 02:21:28;;;;;;;54.67;31.55;;;13.20;99.90;;;;;;5076913;28;20048;-69
2023/05/07 02:23:53;;;;;;;52.13;30.63;;;13.10;99.90;;;;;;5076610;28;20479;-69
2023/05/07 02:26:19;;;;;;;54.03;31.33;;;13.10;99.90;;;;;;5076808;28;20032;-70
2023/05/07 02:28:45;;;;;;;59.50;33.25;;;13.00;99.90;;;;;;5076826;28;20048;-70
2023/05/07 02:31:11;;;;;;;70.28;34.85;;;13.10;99.90;;;;;;5076804;28;20085;-70
2023/05/07 02:33:36;;;;;;;54.33;31.88;;;13.10;99.90;;;;;;5076483;28;20048;-69
2023/05/07 02:36:20;;;;;;;66.70;33.65;;;13.20;99.90;;;;;;5076370;28;20036;-70
2023/05/07 02:38:45;;;;;;;55.58;30.60;;;13.20;99.90;;;;;;5076665;28;20047;-70
2023/05/07 02:41:11;;;;;;;60.10;31.98;;;13.10;99.90;;;;;;5076408;28;20040;-70
2023/05/07 02:43:37;;;;;;;74.60;36.60;;;13.10;99.90;;;;;;5076358;28;20047;-70
2023/05/07 02:46:03;;;;;;;59.83;32.58;;;13.20;99.90;;;;;;5076358;28;20037;-70
2023/05/07 02:48:29;;;;;;;64.78;34.35;;;13.10;99.90;;;;;;5076604;28;20060;-70
2023/05/07 02:50:55;;;;;;;65.38;34.42;;;13.10;99.90;;;;;;5058539;28;20434;-72
2023/05/07 02:53:21;;;;;;;53.80;30.40;;;13.10;99.90;;;;;;5058949;28;20033;-70
2023/05/07 02:55:46;;;;;;;57.70;32.65;;;13.10;99.90;;;;;;5076344;28;20028;-70
2023/05/07 02:58:12;;;;;;;56.45;32.03;;;13.20;99.90;;;;;;5058561;28;20040;-70
2023/05/07 03:00:37;;;;;;;72.70;34.53;;;13.20;99.90;;;;;;5076161;28;20059;-70
2023/05/07 03:03:03;;;;;;;63.45;35.03;;;13.40;99.90;;;;;;5076556;28;20044;-69
2023/05/07 03:05:29;;;;;;;68.90;36.53;;;13.30;99.90;;;;;;5076121;28;20040;-69
2023/05/07 03:07:54;;;;;;;66.88;36.72;;;13.30;99.90;;;;;;5076426;28;20040;-69
2023/05/07 03:10:20;;;;;;;52.92;31.52;;;13.30;99.90;;;;;;5076062;28;20051;-70
2023/05/07 03:12:46;;;;;;;64.15;35.15;;;13.20;99.90;;;;;;5076379;28;20043;-69
2023/05/07 03:15:12;;;;;;;64.97;34.22;;;13.20;99.90;;;;;;5059100;28;20040;-70
2023/05/07 03:17:38;;;;;;;53.33;32.35;;;13.20;99.90;;;;;;5080069;28;20040;-70
2023/05/07 03:20:05;;;;;;;72.03;36.15;;;13.30;99.90;;;;;;5080452;28;20048;-70
2023/05/07 03:22:30;;;;;;;67.05;35.05;;;13.30;99.90;;;;;;5062183;28;20071;-69
2023/05/07 03:24:56;;;;;;;62.05;35.28;;;13.40;99.90;;;;;;5062122;28;20044;-70
2023/05/07 03:27:22;;;;;;;63.75;35.53;;;13.30;99.90;;;;;;5079853;28;20090;-69
2023/05/07 03:29:47;;;;;;;56.08;31.90;;;13.20;99.90;;;;;;5080077;28;20079;-69
2023/05/07 03:32:13;;;;;;;69.53;36.40;;;13.10;99.90;;;;;;5079953;28;20422;-70
2023/05/07 03:34:39;;;;;;;83.93;38.05;;;13.20;99.90;;;;;;5079951;28;20334;-69
2023/05/07 03:37:04;;;;;;;75.78;37.60;;;13.20;99.90;;;;;;5079525;28;20396;-70
2023/05/07 03:39:30;;;;;;;60.90;33.47;;;13.30;99.90;;;;;;5079472;28;20391;-70
2023/05/07 03:41:56;;;;;;;60.50;33.63;;;13.30;99.90;;;;;;5079827;28;20085;-69
2023/05/07 03:44:22;;;;;;;74.45;38.00;;;13.20;99.90;;;;;;5079453;28;20441;-69
2023/05/07 03:46:47;;;;;;;68.38;37.05;;;13.10;99.90;;;;;;5079725;28;20037;-69
2023/05/07 03:49:13;;;;;;;69.47;37.28;;;13.10;99.90;;;;;;5079685;28;20337;-69
2023/05/07 03:51:39;;;;;;;70.85;35.45;;;13.20;99.90;;;;;;5079644;28;20059;-69
2023/05/07 03:54:04;;;;;;;55.40;32.80;;;13.20;99.90;;;;;;5079541;28;20045;-70
2023/05/07 03:56:31;;;;;;;55.97;31.77;;;13.10;99.90;;;;;;5079554;28;20041;-70
2023/05/07 03:58:56;;;;;;;61.83;34.63;;;13.00;99.90;;;;;;5079460;28;20102;-70
2023/05/07 04:01:22;;;;;;;64.18;34.83;;;12.90;99.90;;;;;;5079159;28;20048;-70
2023/05/07 04:03:48;;;;;;;62.47;34.53;;;12.70;99.90;;;;;;5079449;28;20035;-70
2023/05/07 04:06:15;;;;;;;60.55;32.60;;;12.80;99.90;;;;;;5079031;28;20372;-69
2023/05/07 04:08:41;;;;;;;60.95;34.25;;;12.50;99.90;;;;;;5079352;28;20094;-69
2023/05/07 04:11:06;;;;;;;71.25;36.90;;;12.40;99.90;;;;;;5079286;28;20044;-70
2023/05/07 04:13:32;;;;;;;64.07;33.08;;;12.40;99.90;;;;;;5079027;28;20083;-70
2023/05/07 04:15:58;;;;;;;53.90;32.58;;;12.50;99.90;;;;;;5079129;28;20039;-70
2023/05/07 04:18:24;;;;;;;59.65;33.60;;;12.50;99.90;;;;;;5079080;28;20040;-69
2023/05/07 04:20:49;;;;;;;56.85;31.70;;;12.60;99.90;;;;;;5079153;28;20111;-69
2023/05/07 04:23:15;;;;;;;60.63;34.22;;;12.60;99.90;;;;;;5079046;28;20440;-69
2023/05/07 04:25:41;;;;;;;59.88;33.63;;;12.60;99.90;;;;;;5078732;28;20032;-70
2023/05/07 04:28:07;;;;;;;50.05;30.73;;;12.40;99.90;;;;;;5078884;28;20119;-70
2023/05/07 04:30:32;;;;;;;67.88;34.85;;;12.50;99.90;;;;;;5061237;28;20048;-69
2023/05/07 04:32:58;;;;;;;62.42;35.28;;;12.50;99.90;;;;;;5078911;28;20423;-70
2023/05/07 04:35:24;;;;;;;52.38;32.33;;;12.60;99.90;;;;;;5078540;28;20390;-70
2023/05/07 04:37:49;;;;;;;67.15;36.28;;;12.70;99.90;;;;;;5078813;28;20351;-69
2023/05/07 04:40:15;;;;;;;61.80;33.83;;;12.80;99.90;;;;;;5078672;28;20376;-69
2023/05/07 04:42:41;;;;;;;66.50;34.72;;;12.60;99.90;;;;;;5078558;28;20076;-69
2023/05/07 04:45:08;;;;;;;61.53;34.58;;;12.70;99.90;;;;;;5078625;28;20072;-69
2023/05/07 04:47:34;;;;;;;55.13;32.70;;;12.50;99.90;;;;;;5060569;28;20040;-69
2023/05/07 04:50:00;;;;;;;55.92;32.17;;;12.50;99.90;;;;;;5087125;28;20054;-70
2023/05/07 04:52:26;;;;;;;62.45;33.10;;;12.60;99.90;;;;;;5097728;28;20067;-70
2023/05/07 04:54:52;;;;;;;54.38;32.40;;;12.60;99.90;;;;;;5098776;28;20043;-70
2023/05/07 04:57:17;;;;;;;55.60;32.83;;;12.70;99.90;;;;;;5098483;28;20313;-70
2023/05/07 04:59:44;;;;;;;51.08;29.35;;;12.70;99.90;;;;;;5098603;28;20079;-70
2023/05/07 05:02:12;;;;;;;56.58;30.85;;;12.60;99.90;;;;;;5098112;28;20417;-69
2023/05/07 05:04:38;;;;;;;54.22;30.27;;;12.50;99.90;;;;;;5098568;28;20038;-70
2023/05/07 05:07:04;;;;;;;59.22;32.60;;;12.60;99.90;;;;;;5097940;28;20043;-69
2023/05/07 05:09:30;;;;;;;46.65;28.95;;;12.60;99.90;;;;;;5098508;28;20120;-69
2023/05/07 05:11:56;;;;;;;49.05;29.77;;;12.60;99.90;;;;;;5098415;28;20319;-69
2023/05/07 05:14:21;;;;;;;53.30;31.15;;;12.60;99.90;;;;;;5098112;28;20035;-69
2023/05/07 05:16:47;;;;;;;54.13;31.20;;;12.50;99.90;;;;;;5098362;28;20036;-70
2023/05/07 05:19:12;;;;;;;46.95;28.48;;;12.40;99.90;;;;;;5098182;28;20121;-69
2023/05/07 05:21:38;;;;;;;56.70;31.73;;;12.40;99.90;;;;;;5098267;28;20028;-69
2023/05/07 05:24:04;;;;;;;46.33;28.60;;;12.50;99.90;;;;;;5097743;28;20032;-69
2023/05/07 05:26:30;;;;;;;51.83;30.17;;;12.50;99.90;;;;;;5098174;28;20032;-69
2023/05/07 05:28:55;;;;;;;54.58;30.42;;;12.50;99.90;;;;;;5098151;28;20031;-69
2023/05/07 05:31:21;;;;;;;49.58;29.77;;;12.50;99.90;;;;;;5080289;28;20117;-69
2023/05/07 05:33:47;;;;;;;50.80;29.98;;;12.40;99.90;;;;;;5097732;28;20118;-70
2023/05/07 05:36:13;;;;;;;53.90;31.83;;;12.60;99.90;;;;;;5097379;28;20028;-69
2023/05/07 05:38:39;;;;;;;47.30;28.85;;;12.50;99.90;;;;;;5097141;28;20036;-69
2023/05/07 05:41:05;;;;;;;48.55;28.48;;;12.50;99.90;;;;;;5098230;28;20042;-69
2023/05/07 05:43:31;;;;;;;47.42;28.48;;;12.50;99.90;;;;;;5079660;28;20363;-69
2023/05/07 05:45:57;;;;;;;48.42;29.50;;;12.50;99.90;;;;;;5097807;28;20086;-69
2023/05/07 05:48:23;;;;;;;50.17;28.42;;;12.60;99.90;;;;;;5080168;28;20040;-69
2023/05/07 05:50:49;;;;;;;56.13;31.90;;;12.50;99.90;;;;;;5097721;28;20081;-69
2023/05/07 05:53:15;;;;;;;46.90;28.45;;;12.60;99.90;;;;;;5097705;28;20347;-69
2023/05/07 05:55:42;;;;;;;39.95;26.42;;;12.60;99.90;;;;;;5097748;28;20429;-69
2023/05/07 05:58:08;;;;;;;53.05;30.52;;;12.40;99.90;;;;;;5097599;28;20028;-69
2023/05/07 06:00:34;;;;;;;53.75;29.42;;;12.40;99.90;;;;;;5079187;28;20031;-69
2023/05/07 06:02:59;;;;;;;44.80;28.42;;;12.50;99.90;;;;;;5097285;28;20370;-70
2023/05/07 06:05:25;;;;;;;45.35;28.67;;;12.40;99.90;;;;;;5079625;28;20116;-70
2023/05/07 06:07:51;;;;;;;50.78;30.05;;;12.50;99.90;;;;;;5097063;28;20146;-69
2023/05/07 06:10:17;;;;;;;43.90;27.88;;;12.50;99.90;;;;;;5097394;28;20036;-69
2023/05/07 06:12:43;;;;;;;50.38;29.77;;;12.50;99.90;;;;;;5097364;28;20042;-69
2023/05/07 06:15:09;;;;;;;52.65;29.88;;;12.40;99.90;;;;;;5097362;28;20038;-69
2023/05/07 06:17:35;;;;;;;51.00;31.48;;;12.40;99.90;;;;;;5097034;28;20326;-69
2023/05/07 06:20:00;;;;;;;49.05;30.52;;;12.50;99.90;;;;;;5097181;28;20034;-69
2023/05/07 06:22:26;;;;;;;49.63;29.17;;;12.50;99.90;;;;;;5097214;28;20074;-69
2023/05/07 06:24:52;;;;;;;45.67;28.50;;;12.50;99.90;;;;;;5097180;28;20028;-69
2023/05/07 06:27:17;;;;;;;49.45;29.25;;;12.40;99.90;;;;;;5097093;28;20032;-69
2023/05/07 06:29:43;;;;;;;53.63;29.90;;;12.40;99.90;;;;;;5097105;28;20366;-69
2023/05/07 06:32:10;;;;;;;40.67;26.38;;;12.40;99.90;;;;;;5097107;28;20329;-69
2023/05/07 06:34:36;;;;;;;48.40;29.08;;;12.40;99.90;;;;;;5097027;28;20032;-69
2023/05/07 06:37:02;;;;;;;45.10;28.77;;;12.40;99.90;;;;;;5096405;28;20485;-69
2023/05/07 06:39:28;;;;;;;43.55;26.63;;;12.30;99.90;;;;;;5096893;28;20305;-69
2023/05/07 06:41:54;;;;;;;54.72;30.10;;;12.30;99.90;;;;;;5097017;28;20036;-69
2023/05/07 06:44:19;;;;;;;50.13;30.52;;;12.40;99.90;;;;;;5096958;28;20035;-69
2023/05/07 06:46:45;;;;;;;39.67;25.00;;;12.30;99.90;;;;;;5096614;28;20054;-69
2023/05/07 06:49:12;;;;;;;42.75;26.23;;;12.40;99.90;;;;;;5096902;28;20121;-69
2023/05/07 06:51:38;;;;;;;44.88;27.48;;;12.60;99.90;;;;;;5100157;28;20304;-69
2023/05/07 06:54:04;;;;;;;43.67;25.55;;;12.70;99.90;;;;;;5100799;28;20131;-71
2023/05/07 06:56:30;;;;;;;46.30;26.83;;;12.80;99.90;;;;;;5100810;28;20039;-69
2023/05/07 06:58:56;;;;;;;45.35;27.52;;;12.70;99.90;;;;;;5100907;28;20070;-69
2023/05/07 07:01:22;;;;;;;41.60;25.52;;;12.80;99.90;;;;;;5100628;28;20079;-69
2023/05/07 07:03:47;;;;;;;41.42;25.45;;;13.00;99.90;;;;;;5100875;28;20037;-69
2023/05/07 07:06:13;;;;;;;39.63;24.67;;;12.90;99.90;;;;;;5100294;28;20078;-69
2023/05/07 07:08:39;;;;;;;42.83;26.33;;;13.00;99.90;;;;;;5083020;28;20071;-69
2023/05/07 07:11:05;;;;;;;42.83;26.27;;;13.00;99.90;;;;;;5100780;28;20039;-69
2023/05/07 07:13:31;;;;;;;48.17;28.52;;;13.00;99.90;;;;;;5100420;28;20119;-69
2023/05/07 07:15:57;;;;;;;47.45;26.63;;;12.90;99.90;;;;;;5100677;28;20119;-69
2023/05/07 07:18:23;;;;;;;39.53;25.63;;;12.90;99.90;;;;;;5082449;28;20040;-69
2023/05/07 07:20:48;;;;;;;42.25;26.20;;;12.80;99.90;;;;;;5082835;28;20044;-69
2023/05/07 07:23:14;;;;;;;46.58;26.42;;;12.70;99.90;;;;;;5100289;28;20140;-69
2023/05/07 07:25:40;;;;;;;47.33;25.85;;;12.80;99.90;;;;;;5100510;28;20080;-69
2023/05/07 07:28:06;;;;;;;42.60;25.55;;;12.70;99.90;;;;;;5082730;28;20061;-69
2023/05/07 07:30:31;;;;;;;37.95;24.30;;;12.80;99.90;;;;;;5100454;28;20047;-69
2023/05/07 07:33:02;;;;;;;46.88;27.05;;;12.80;99.90;;;;;;5100361;28;20040;-69
2023/05/07 07:35:31;;;;;;;48.13;27.60;;;12.70;99.90;;;;;;5082165;28;20051;-69
2023/05/07 07:37:57;;;;;;;45.00;25.95;;;12.80;99.90;;;;;;5099944;28;20044;-69
2023/05/07 07:40:23;;;;;;;43.17;26.73;;;13.00;99.90;;;;;;5081954;28;20316;-69
2023/05/07 07:42:49;;;;;;;39.63;24.77;;;13.10;99.90;;;;;;5100776;28;20040;-69
2023/05/07 07:45:15;;;;;;;40.08;24.35;;;13.20;99.90;;;;;;5082266;28;20062;-69
2023/05/07 07:47:40;;;;;;;42.67;25.73;;;13.20;99.90;;;;;;5100154;28;20028;-69
2023/05/07 07:50:07;;;;;;;40.13;25.30;;;13.40;99.90;;;;;;5082246;28;20036;-69
2023/05/07 07:52:33;;;;;;;40.35;24.45;;;13.20;99.90;;;;;;5100030;28;20032;-69
2023/05/07 07:54:59;;;;;;;41.72;26.50;;;13.30;99.90;;;;;;5099683;28;20417;-69
2023/05/07 07:57:25;;;;;;;45.35;27.38;;;13.30;99.90;;;;;;5099614;28;20093;-69
2023/05/07 07:59:51;;;;;;;41.30;26.20;;;13.50;99.90;;;;;;5099510;28;20081;-69
2023/05/07 08:02:17;;;;;;;43.90;26.13;;;13.50;99.90;;;;;;5098838;28;20444;-69
2023/05/07 08:04:43;;;;;;;44.40;27.05;;;13.60;99.90;;;;;;5065285;28;20379;-69
2023/05/07 08:07:12;;;;;;;43.90;27.75;;;13.70;99.90;;;;;;5099094;28;20039;-69
2023/05/07 08:09:39;;;;;;;39.33;25.27;;;13.80;99.90;;;;;;5100078;28;20368;-69
2023/05/07 08:12:05;;;;;;;42.13;26.27;;;14.00;99.90;;;;;;5099362;28;20475;-69
2023/05/07 08:14:31;;;;;;;38.53;24.88;;;14.10;99.90;;;;;;5099589;28;20342;-68
2023/05/07 08:16:57;;;;;;;36.55;24.30;;;14.20;99.90;;;;;;5099497;28;20173;-67
2023/05/07 08:19:23;;;;;;;36.17;24.15;;;14.20;99.90;;;;;;5099405;28;20047;-68
2023/05/07 08:21:48;;;;;;;38.83;24.05;;;14.20;99.90;;;;;;5099156;28;20097;-68
2023/05/07 08:24:15;;;;;;;38.53;24.15;;;14.20;99.90;;;;;;5099134;28;20042;-69
2023/05/07 08:26:41;;;;;;;40.40;24.58;;;14.20;99.90;;;;;;5099358;28;20028;-67
2023/05/07 08:29:07;;;;;;;40.42;24.35;;;14.40;99.90;;;;;;5099324;28;20079;-69
2023/05/07 08:31:33;;;;;;;37.22;23.10;;;14.50;99.90;;;;;;5099288;28;20294;-68
2023/05/07 08:33:59;;;;;;;38.70;24.10;;;14.40;99.90;;;;;;5081066;28;20043;-68
2023/05/07 08:36:25;;;;;;;34.40;22.95;;;14.30;99.90;;;;;;5098922;28;20355;-68
2023/05/07 08:38:52;;;;;;;38.33;24.67;;;14.20;99.90;;;;;;5099085;28;20040;-67
2023/05/07 08:41:17;;;;;;;38.42;23.52;;;14.20;99.90;;;;;;5098788;28;20036;-72
2023/05/07 08:43:50;;;;;;;36.75;23.38;;;14.10;99.90;;;;;;5098774;28;20042;-68
2023/05/07 08:46:21;;;;;;;36.47;23.70;;;13.80;99.90;;;;;;5099017;28;20081;-67
2023/05/07 08:48:50;;;;;;;33.88;22.70;;;13.80;99.90;;;;;;5098665;28;20043;-68
2023/05/07 08:51:18;;;;;;;35.03;23.13;;;14.10;99.90;;;;;;5098558;28;20093;-68
2023/05/07 08:53:44;;;;;;;38.72;23.45;;;14.20;99.90;;;;;;5098892;28;20108;-68
2023/05/07 08:56:11;;;;;;;36.85;23.95;;;14.20;99.90;;;;;;5098768;28;20036;-68
2023/05/07 08:58:36;;;;;;;34.50;23.10;;;14.30;99.90;;;;;;5098692;28;20023;-68
2023/05/07 09:01:12;;;;;;;33.58;21.45;;;14.00;99.90;;;;;;5098496;28;20105;-68
2023/05/07 09:03:44;;;;;;;38.08;24.13;;;14.20;99.90;;;;;;5080783;28;20352;-68
2023/05/07 09:06:10;;;;;;;39.40;23.50;;;14.60;99.90;;;;;;5080059;28;20031;-68
2023/05/07 09:08:36;;;;;;;35.42;23.23;;;14.70;99.90;;;;;;5098524;28;20036;-68
2023/05/07 09:11:02;;;;;;;35.85;22.70;;;14.70;99.90;;;;;;5080313;28;20058;-68
2023/05/07 09:13:31;;;;;;;33.47;21.90;;;14.90;99.90;;;;;;5063021;28;20047;-68
2023/05/07 09:15:57;;;;;;;33.33;21.70;;;14.90;99.90;;;;;;5098459;28;20028;-68
2023/05/07 09:18:25;;;;;;;31.08;20.67;;;14.90;99.90;;;;;;5098432;28;20409;-73
2023/05/07 09:21:00;;;;;;;31.27;21.42;;;14.80;99.90;;;;;;5098315;28;20051;-73
2023/05/07 09:23:26;;;;;;;36.08;21.50;;;14.10;99.90;;;;;;5097980;28;20039;-73
2023/05/07 09:26:04;;;;;;;35.28;21.02;;;14.00;99.90;;;;;;5097913;28;20028;-73
2023/05/07 09:28:29;;;;;;;38.88;24.17;;;13.70;99.90;;;;;;5097939;28;20040;-73
2023/05/07 09:30:55;;;;;;;36.47;22.08;;;13.80;99.90;;;;;;5098037;28;20042;-73
2023/05/07 09:33:21;;;;;;;35.47;22.73;;;13.80;99.90;;;;;;5098111;28;20039;-73
2023/05/07 09:35:51;;;;;;;32.78;21.33;;;13.90;99.90;;;;;;5079867;28;20115;-75
2023/05/07 09:38:19;;;;;;;34.83;22.08;;;14.00;99.90;;;;;;5079844;28;20481;-73
2023/05/07 09:40:48;;;;;;;36.63;23.23;;;13.90;99.90;;;;;;5063525;28;20047;-73
2023/05/07 09:43:14;;;;;;;33.15;21.40;;;14.10;99.90;;;;;;5080493;28;20040;-68
2023/05/07 09:45:41;;;;;;;38.05;22.02;;;14.10;99.90;;;;;;5097150;28;20427;-68
2023/05/07 09:48:18;;;;;;;31.92;20.73;;;14.40;99.90;;;;;;5097814;28;20086;-73
2023/05/07 09:50:49;;;;;;;36.47;22.50;;;14.70;99.90;;;;;;5097684;28;20036;-69
2023/05/07 09:53:16;;;;;;;37.72;23.40;;;14.80;99.90;;;;;;5097740;28;20079;-68
2023/05/07 09:55:43;;;;;;;32.95;22.05;;;15.00;99.90;;;;;;5097308;28;20080;-68
2023/05/07 09:58:12;;;;;;;35.65;22.27;;;15.20;99.90;;;;;;5097575;28;20075;-68
2023/05/07 10:00:42;;;;;;;33.42;21.77;;;15.40;99.90;;;;;;5097420;28;20040;-68
2023/05/07 10:03:13;;;;;;;34.00;22.10;;;15.60;99.90;;;;;;5097547;28;20048;-68
2023/05/07 10:05:40;;;;;;;29.98;21.10;;;15.40;99.90;;;;;;5097430;28;20043;-69
2023/05/07 10:08:07;;;;;;;31.90;20.65;;;15.50;99.90;;;;;;5096638;28;20508;-69
2023/05/07 10:10:34;;;;;;;34.05;22.20;;;15.40;99.90;;;;;;5089434;28;20048;-73
2023/05/07 10:13:01;;;;;;;29.15;20.40;;;15.30;99.90;;;;;;5084313;28;20094;-69
2023/05/07 10:15:29;;;;;;;36.30;21.80;;;15.40;99.90;;;;;;5081592;28;20036;-69
2023/05/07 10:17:55;;;;;;;32.83;21.08;;;15.70;99.90;;;;;;5082906;28;20047;-69
2023/05/07 10:20:21;;;;;;;30.38;20.13;;;15.80;99.90;;;;;;5077908;28;20422;-73
2023/05/07 10:22:49;;;;;;;29.05;19.02;;;15.90;99.90;;;;;;5076715;28;20067;-68
2023/05/07 10:25:20;;;;;;;28.25;19.75;;;15.80;99.90;;;;;;5076929;28;20041;-69
2023/05/07 10:27:48;;;;;;;33.38;20.67;;;16.00;99.90;;;;;;5076593;28;20452;-68
2023/05/07 10:30:22;;;;;;;30.10;20.23;;;16.00;99.90;;;;;;5076836;28;20040;-69
2023/05/07 10:32:57;;;;;;;32.40;21.67;;;16.10;99.90;;;;;;5076850;28;20044;-69
2023/05/07 10:35:29;;;;;;;28.88;19.65;;;16.00;99.90;;;;;;5076824;28;20072;-69
2023/05/07 10:37:55;;;;;;;29.45;20.60;;;16.00;99.90;;;;;;5076432;28;20052;-69
2023/05/07 10:40:21;;;;;;;28.52;19.88;;;16.20;99.90;;;;;;5079784;28;20040;-71
2023/05/07 10:42:55;;;;;;;27.33;19.15;;;16.00;99.90;;;;;;5091215;28;20064;-69
2023/05/07 10:45:22;;;;;;;29.52;19.83;;;15.90;99.90;;;;;;5072269;28;20040;-69
2023/05/07 10:48:14;;;;;;;25.02;18.73;;;16.20;99.90;;;;;;5083800;28;20033;-69
2023/05/07 10:50:41;;;;;;;28.80;18.98;;;16.50;99.90;;;;;;5082675;28;20041;-69
2023/05/07 10:53:18;;;;;;;25.83;17.98;;;16.60;99.90;;;;;;5079310;28;20095;-75
2023/05/07 10:55:44;;;;;;;23.42;17.55;;;16.60;99.90;;;;;;5076665;28;20033;-70
2023/05/07 10:58:37;;;;;;;26.27;18.52;;;16.70;99.90;;;;;;5076296;28;20059;-69
2023/05/07 11:01:03;;;;;;;25.52;17.60;;;17.10;99.90;;;;;;5071833;28;20052;-69
2023/05/07 11:03:29;;;;;;;23.77;17.42;;;17.10;99.90;;;;;;5076194;28;20040;-68
2023/05/07 11:06:15;;;;;;;26.83;17.70;;;17.30;99.90;;;;;;5076700;28;20107;-76
2023/05/07 11:08:52;;;;;;;23.15;17.67;;;17.40;99.90;;;;;;5076307;28;20037;-67
2023/05/07 11:11:19;;;;;;;22.75;16.52;;;17.50;99.90;;;;;;5076263;28;20098;-69
2023/05/07 11:13:52;;;;;;;22.88;16.88;;;17.60;99.90;;;;;;5076320;28;20422;-68
2023/05/07 11:16:24;;;;;;;22.52;16.85;;;17.50;99.90;;;;;;5075632;28;20433;-70
2023/05/07 11:18:52;;;;;;;22.30;16.70;;;17.40;99.90;;;;;;5074895;28;20116;-69
2023/05/07 11:21:38;;;;;;;22.38;15.88;;;17.40;99.90;;;;;;5076352;28;20037;-68
2023/05/07 11:24:08;;;;;;;22.35;15.38;;;17.60;99.90;;;;;;5075366;28;20053;-70
2023/05/07 11:27:03;;;;;;;22.42;15.60;;;17.70;99.90;;;;;;5076671;28;20037;-80
2023/05/07 11:29:32;;;;;;;21.63;16.88;;;17.40;99.90;;;;;;5048186;28;20059;-79
2023/05/07 11:32:00;;;;;;;25.75;16.65;;;17.20;99.90;;;;;;5059123;28;20048;-79
2023/05/07 11:34:26;;;;;;;22.48;16.77;;;16.50;99.90;;;;;;5059007;28;20398;-69
2023/05/07 11:36:55;;;;;;;20.92;16.70;;;16.50;99.90;;;;;;5077253;28;20055;-69
2023/05/07 11:39:31;;;;;;;22.63;17.08;;;16.90;99.90;;;;;;5079827;28;20106;-70
2023/05/07 11:41:57;;;;;;;23.25;17.25;;;17.30;99.90;;;;;;5079937;28;20041;-69
2023/05/07 11:44:23;;;;;;;20.15;15.57;;;17.80;99.90;;;;;;5079834;28;20037;-69
2023/05/07 11:46:49;;;;;;;20.88;14.43;;;17.80;99.90;;;;;;5079574;28;20422;-69
2023/05/07 11:49:15;;;;;;;21.65;16.52;;;18.40;99.90;;;;;;5079735;28;20060;-69
2023/05/07 11:51:41;;;;;;;16.88;14.57;;;18.50;99.90;;;;;;5079741;28;20048;-69
2023/05/07 11:54:11;;;;;;;20.50;14.70;;;18.70;99.90;;;;;;5078381;28;20078;-71
2023/05/07 11:56:37;;;;;;;17.70;13.93;;;19.20;99.90;;;;;;5045159;28;20426;-70
2023/05/07 11:59:03;;;;;;;17.55;14.02;;;19.50;99.90;;;;;;5078613;28;20037;-70
2023/05/07 12:01:28;;;;;;;18.25;13.82;;;19.40;99.90;;;;;;5078142;28;20158;-70
2023/05/07 12:03:54;;;;;;;18.08;14.10;;;20.00;99.90;;;;;;5099571;28;20124;-70
2023/05/07 12:06:20;;;;;;;18.20;14.52;;;20.10;99.90;;;;;;5090502;28;20120;-70
2023/05/07 12:08:46;;;;;;;18.70;14.57;;;20.40;99.90;;;;;;5085011;28;20036;-71
2023/05/07 12:11:30;;;;;;;17.92;13.85;;;20.60;99.90;;;;;;5099124;28;20044;-71
2023/05/07 12:13:55;;;;;;;16.17;13.20;;;20.50;99.90;;;;;;5086965;28;20036;-71
2023/05/07 12:16:22;;;;;;;20.50;14.15;;;20.70;99.90;;;;;;5078876;28;20035;-71
2023/05/07 12:18:48;;;;;;;16.83;12.43;;;21.00;99.90;;;;;;5078998;28;20035;-75
2023/05/07 12:21:17;;;;;;;17.08;13.20;;;20.90;99.90;;;;;;5044580;28;20037;-69
2023/05/07 12:23:42;;;;;;;19.73;13.27;;;20.50;99.90;;;;;;5079172;28;20105;-68
2023/05/07 12:26:08;;;;;;;17.50;13.88;;;20.70;99.90;;;;;;5077674;28;20361;-70
2023/05/07 12:28:42;;;;;;;18.23;14.55;;;20.50;99.90;;;;;;5079037;28;20033;-70